Aeroporto :
LOGIN :

Iscrizione | Disclaimer

   EN    FR    IT 

 










Sommario :    VFR   VFR Marginale   IFR   IFR Intensivo   IFR Molto Intensivo
Visibilità : 
Base nubi : 
>= 8 km
>= 3000ft
5 / 8 km
1000 / 3000 ft
1500m / 5 km
500 / 1000 ft
800 / 1500m
200 / 500 ft
< 800m
< 200 ft
Simboli :   Temporali  Nebbia  Neve Forte  Precipitazioni Forti  Vento > 20 kt
SIGMETs :   Varie  Temporali  Ghiacco  Turbolenza  Onda orograficha  Ceneri Vulcaniche






- Altitudine del aeroporto : 390 ft
- Codice IATA : NQY


EGHQ - Newquay

ULTIMO METAR :
  • 300850Z 19011KT 9999 FEW012 13/11 Q1008

METARs OBSOLETI :
  • 300820Z 19010KT 9999 FEW012 13/11 Q1008
  • 300750Z 20009KT 9999 FEW010 13/11 Q1009
  • 300720Z 19008KT 9999 FEW028 12/11 Q1009
  • 300650Z 19008KT 9999 FEW028 12/11 Q1009
  • 300620Z 19007KT 9999 FEW018 11/11 Q1009

TAF TAF EGHQ
Valido dal 30 a 09 ore il 30 a 18 ore UTC


300757Z 3009/3018 20012KT 9999 SCT020
TEMPO 3009/3018 22025G35KT 6000 RA BKN012
PROB40
TEMPO 3010/3018 3000 +RA BKN004



MetMap, La meteo Aeronautica in un colpo d'occhio ! - Copyright ORBIFLY Dicembre 2007 - Disclaimer

ORBIFLY MET'MAP TEAM :

Programmazione e sviluppo : Alexandra Zaïnal
Concezione : Baudouin d'Aumeries
Supporto tecnico e logistico : Manuel Goepfert
Aiuto : Marc-Olivier Méhu
Aiuto per la traduzione : Arnaldo La Scala




FONTI E CREDITI :

   NOAA